createdAt,value
2019-01-23T00:02:12.026Z,66.16
2019-01-23T00:07:15.418Z,65.73
2019-01-23T00:12:18.827Z,65.84
2019-01-23T00:17:22.213Z,65.78
2019-01-23T00:22:25.514Z,66.01
2019-01-23T00:27:28.913Z,65.78
2019-01-23T00:32:32.224Z,64.89
2019-01-23T00:37:35.588Z,64.35
2019-01-23T00:42:38.935Z,64.34
2019-01-23T00:47:42.300Z,64.70
2019-01-23T00:52:45.650Z,64.22
2019-01-23T00:57:48.948Z,64.55
2019-01-23T01:02:52.333Z,65.50
2019-01-23T01:07:55.569Z,64.83
2019-01-23T01:12:58.790Z,65.11
2019-01-23T01:18:02.093Z,65.12
2019-01-23T01:23:05.305Z,64.44
2019-01-23T01:28:08.593Z,65.00
2019-01-23T01:33:11.794Z,65.25
2019-01-23T01:38:15.003Z,66.29
2019-01-23T01:43:18.318Z,66.18
2019-01-23T01:48:21.528Z,66.06
2019-01-23T01:53:24.742Z,64.89
2019-01-23T01:58:27.960Z,65.40
2019-01-23T02:03:31.166Z,65.56
2019-01-23T02:08:34.382Z,66.91
2019-01-23T02:13:37.570Z,66.25
2019-01-23T02:18:40.768Z,66.87
2019-01-23T02:23:44.057Z,66.79
2019-01-23T02:28:47.273Z,67.01
2019-01-23T02:33:50.468Z,67.22
2019-01-23T02:38:53.662Z,66.39
2019-01-23T02:43:56.885Z,66.64
2019-01-23T02:49:00.082Z,65.95
2019-01-23T02:54:03.282Z,66.51
2019-01-23T02:59:06.504Z,66.49
2019-01-23T03:04:09.703Z,65.61
2019-01-23T03:09:12.905Z,65.71
2019-01-23T03:14:16.256Z,66.30
2019-01-23T03:19:19.514Z,65.73
2019-01-23T03:24:22.733Z,65.33
2019-01-23T03:29:25.944Z,65.83
2019-01-23T03:34:29.135Z,65.04
2019-01-23T03:39:32.325Z,65.84
2019-01-23T03:44:35.531Z,65.31
2019-01-23T03:49:38.741Z,64.61
2019-01-23T03:54:41.969Z,65.16
2019-01-23T03:59:45.173Z,64.77
2019-01-23T04:04:48.369Z,64.37
2019-01-23T04:09:51.583Z,64.65
2019-01-23T04:14:54.810Z,64.71
2019-01-23T04:19:58.005Z,64.49
2019-01-23T04:25:01.344Z,64.19
2019-01-23T04:30:05.948Z,64.39
2019-01-23T04:35:09.171Z,64.26
2019-01-23T04:40:12.443Z,64.73
2019-01-23T04:45:15.724Z,64.84
2019-01-23T04:50:18.968Z,64.56
2019-01-23T04:55:22.190Z,64.37
2019-01-23T05:00:26.352Z,64.90
2019-01-23T05:05:29.563Z,63.94
2019-01-23T05:10:32.767Z,64.84
2019-01-23T05:15:36.062Z,64.59
2019-01-23T05:20:39.347Z,64.88
2019-01-23T05:25:42.553Z,64.84
2019-01-23T05:30:45.840Z,64.69
2019-01-23T05:35:49.046Z,64.94
2019-01-23T05:40:52.252Z,64.75
2019-01-23T05:45:55.465Z,65.06
2019-01-23T05:50:58.665Z,64.77
2019-01-23T05:56:01.869Z,64.51
2019-01-23T06:01:05.211Z,65.02
2019-01-23T06:06:08.400Z,64.49
2019-01-23T06:11:11.694Z,64.44
2019-01-23T06:16:14.900Z,64.43
2019-01-23T06:21:18.111Z,64.34
2019-01-23T06:26:21.427Z,64.74
2019-01-23T06:31:24.625Z,64.91
2019-01-23T06:36:27.840Z,64.25
2019-01-23T06:41:31.044Z,64.93
2019-01-23T06:46:34.246Z,64.81
2019-01-23T06:51:37.433Z,64.85
2019-01-23T06:56:40.633Z,64.36
2019-01-23T07:01:43.836Z,64.55
2019-01-23T07:06:47.057Z,64.85
2019-01-23T07:11:50.245Z,65.18
2019-01-23T07:16:53.456Z,64.22
2019-01-23T07:21:56.650Z,64.46
2019-01-23T07:26:59.862Z,64.48
2019-01-23T07:32:03.106Z,64.20
2019-01-23T07:37:06.399Z,64.14
2019-01-23T07:42:09.617Z,64.30
2019-01-23T07:47:12.826Z,64.04
2019-01-23T07:52:16.117Z,64.04
2019-01-23T07:57:19.323Z,64.06
2019-01-23T08:02:22.613Z,63.55
2019-01-23T08:07:25.813Z,63.62
2019-01-23T08:12:29.042Z,63.45
2019-01-23T08:17:32.837Z,63.98
2019-01-23T08:22:35.484Z,64.21
2019-01-23T08:27:38.697Z,63.83
2019-01-23T08:32:41.893Z,64.18
2019-01-23T08:37:45.162Z,64.04
2019-01-23T08:42:48.457Z,64.11
2019-01-23T08:47:51.637Z,63.81
2019-01-23T08:52:54.839Z,64.11
2019-01-23T08:57:58.082Z,63.80
2019-01-23T09:03:01.265Z,63.15
2019-01-23T09:08:04.875Z,63.51
2019-01-23T09:13:08.117Z,63.74
2019-01-23T09:18:11.430Z,62.47
2019-01-23T09:23:14.758Z,62.28
2019-01-23T09:28:18.068Z,61.87
2019-01-23T09:33:31.765Z,61.66
2019-01-23T09:38:47.136Z,61.53
2019-01-23T09:44:02.433Z,60.94
2019-01-23T09:49:13.150Z,60.41
2019-01-23T09:54:16.747Z,60.38
2019-01-23T09:59:19.941Z,59.99
2019-01-23T10:04:23.132Z,60.62
2019-01-23T10:09:26.389Z,59.71
2019-01-23T10:14:29.606Z,59.75
2019-01-23T10:19:32.812Z,59.15
2019-01-23T10:24:36.262Z,59.39
2019-01-23T10:29:39.257Z,59.44
2019-01-23T10:34:42.513Z,59.39
2019-01-23T10:39:45.753Z,58.13
2019-01-23T10:44:48.995Z,59.00
2019-01-23T10:49:52.208Z,58.32
2019-01-23T10:54:56.440Z,58.78
2019-01-23T10:59:59.661Z,57.70
2019-01-23T11:05:02.882Z,57.24
2019-01-23T11:10:08.098Z,57.76
2019-01-23T11:15:11.333Z,57.54
2019-01-23T11:20:16.099Z,56.84
2019-01-23T11:25:19.410Z,56.70
2019-01-23T11:30:24.615Z,56.71
2019-01-23T11:35:27.835Z,56.79
2019-01-23T11:40:31.352Z,57.40
2019-01-23T11:45:34.616Z,56.28
2019-01-23T11:50:37.900Z,56.26
2019-01-23T11:55:41.150Z,55.46
2019-01-23T12:00:44.383Z,56.35
2019-01-23T12:05:47.635Z,56.40
2019-01-23T12:10:50.859Z,56.00
2019-01-23T12:15:54.094Z,56.54
2019-01-23T12:20:57.305Z,55.99
2019-01-23T12:26:00.514Z,55.30
2019-01-23T12:31:03.745Z,55.97
2019-01-23T12:36:07.008Z,55.75
2019-01-23T12:41:10.409Z,55.81
2019-01-23T12:46:13.734Z,56.16
2019-01-23T12:51:17.164Z,56.81
2019-01-23T12:56:20.470Z,56.62
2019-01-23T13:01:23.773Z,57.48
2019-01-23T13:06:27.113Z,57.36
2019-01-23T13:11:30.337Z,57.16
2019-01-23T13:16:33.582Z,57.49
2019-01-23T13:21:36.844Z,57.59
2019-01-23T13:26:40.090Z,57.55
2019-01-23T13:31:49.071Z,57.41
2019-01-23T13:36:46.747Z,58.09
2019-01-23T13:41:50.086Z,57.91
2019-01-23T13:46:53.362Z,58.72
2019-01-23T13:51:56.586Z,57.75
2019-01-23T13:56:59.898Z,58.44
2019-01-23T14:02:03.200Z,58.44
2019-01-23T14:07:10.568Z,57.84
2019-01-23T14:12:13.873Z,57.94
2019-01-23T14:17:17.247Z,58.14
2019-01-23T14:22:20.564Z,58.57
2019-01-23T14:27:23.865Z,58.29
2019-01-23T14:32:27.326Z,58.92
2019-01-23T14:37:30.670Z,58.62
2019-01-23T14:42:33.977Z,58.93
2019-01-23T14:47:37.284Z,58.09
2019-01-23T14:52:40.602Z,58.11
2019-01-23T14:57:44.048Z,58.45
2019-01-23T15:02:47.353Z,59.32
2019-01-23T15:07:50.645Z,60.37
2019-01-23T15:12:53.969Z,60.53
2019-01-23T15:17:57.333Z,61.00
2019-01-23T15:23:00.637Z,61.04
2019-01-23T15:28:04.316Z,61.83
2019-01-23T15:33:07.351Z,62.62
2019-01-23T15:38:10.735Z,62.98
2019-01-23T15:43:14.179Z,62.77
2019-01-23T15:48:17.518Z,62.55
2019-01-23T15:53:20.821Z,63.78
2019-01-23T15:58:24.281Z,64.77
2019-01-23T16:03:27.637Z,63.12
2019-01-23T16:08:30.962Z,63.82
2019-01-23T16:13:34.393Z,64.06
2019-01-23T16:18:37.789Z,64.11
2019-01-23T16:23:41.091Z,64.15
2019-01-23T16:28:44.521Z,64.80
2019-01-23T16:33:47.830Z,65.73
2019-01-23T16:38:51.263Z,65.06
2019-01-23T16:43:54.565Z,65.64
2019-01-23T16:48:57.945Z,65.69
2019-01-23T16:54:01.314Z,65.49
2019-01-23T16:59:05.034Z,64.76
2019-01-23T17:04:08.404Z,64.96
2019-01-23T17:09:11.963Z,65.58
2019-01-23T17:14:15.286Z,65.50
2019-01-23T17:19:18.673Z,65.86
2019-01-23T17:24:21.973Z,66.25
2019-01-23T17:29:30.693Z,65.56
2019-01-23T17:34:28.962Z,65.79
2019-01-23T17:39:32.316Z,65.50
2019-01-23T17:44:35.698Z,66.20
2019-01-23T17:49:39.070Z,65.86
2019-01-23T17:54:42.453Z,65.87
2019-01-23T17:59:45.801Z,65.39
2019-01-23T18:04:49.205Z,65.94
2019-01-23T18:09:52.548Z,65.13
2019-01-23T18:14:55.931Z,65.22
2019-01-23T18:19:59.293Z,65.24
2019-01-23T18:25:02.878Z,65.31
2019-01-23T18:30:10.613Z,64.97
2019-01-23T18:35:37.141Z,64.19
2019-01-23T18:42:52.563Z,63.17
2019-01-23T18:48:26.793Z,63.91
2019-01-23T18:53:30.323Z,64.86
2019-01-23T18:58:33.754Z,64.86
2019-01-23T19:03:37.154Z,65.34
2019-01-23T19:08:40.509Z,64.67
2019-01-23T19:13:43.899Z,64.95
2019-01-23T19:18:47.292Z,65.09
2019-01-23T19:23:50.736Z,63.95
2019-01-23T19:28:54.174Z,63.31
2019-01-23T19:33:57.521Z,62.98
2019-01-23T19:39:00.867Z,62.50
2019-01-23T19:44:04.752Z,62.44
2019-01-23T19:49:08.119Z,62.91
2019-01-23T19:54:11.463Z,62.24
2019-01-23T19:59:14.792Z,62.55
2019-01-23T20:04:18.271Z,62.67
2019-01-23T20:09:21.894Z,62.54
2019-01-23T20:14:25.279Z,62.67
2019-01-23T20:19:28.927Z,62.51
2019-01-23T20:24:32.067Z,62.31
2019-01-23T20:29:35.465Z,62.59
2019-01-23T20:34:39.059Z,62.81
2019-01-23T20:39:42.449Z,62.41
2019-01-23T20:44:45.893Z,62.50
2019-01-23T20:49:49.294Z,62.69
2019-01-23T20:54:52.850Z,62.51
2019-01-23T20:59:56.174Z,62.89
2019-01-23T21:04:59.558Z,63.32
2019-01-23T21:10:03.050Z,62.71
2019-01-23T21:15:06.632Z,62.95
2019-01-23T21:20:10.172Z,62.93
2019-01-23T21:25:13.638Z,62.46
2019-01-23T21:30:21.473Z,62.75
2019-01-23T21:35:24.874Z,63.29
2019-01-23T21:40:30.529Z,63.51
2019-01-23T21:45:36.667Z,62.88
2019-01-23T21:50:40.042Z,62.69
2019-01-23T21:55:43.528Z,62.88
2019-01-23T22:00:49.430Z,62.85
2019-01-23T22:05:52.758Z,63.32
2019-01-23T22:10:56.530Z,62.91
2019-01-23T22:15:59.981Z,63.23
2019-01-23T22:21:03.207Z,62.82
2019-01-23T22:26:06.554Z,63.58
2019-01-23T22:31:09.758Z,62.58
2019-01-23T22:36:13.154Z,62.60
2019-01-23T22:41:16.548Z,62.85
2019-01-23T22:46:19.920Z,62.67
2019-01-23T22:51:23.263Z,62.79
2019-01-23T22:56:26.465Z,62.61
2019-01-23T23:01:30.697Z,62.80
2019-01-23T23:06:33.901Z,62.95
2019-01-23T23:11:37.144Z,62.88
2019-01-23T23:16:40.353Z,62.94
2019-01-23T23:21:43.653Z,62.67
2019-01-23T23:26:46.861Z,62.79
2019-01-23T23:31:50.171Z,62.77
2019-01-23T23:36:53.407Z,63.07
2019-01-23T23:41:57.839Z,62.70
2019-01-23T23:46:59.832Z,62.56
2019-01-23T23:52:03.033Z,63.01
2019-01-23T23:57:06.249Z,62.74
